Hlavní strana
METAR-TAF:

METAR-TAF

Letiště :

Bagdád, Irák

zeměpisná šířka: 33-15-45N, zeměpisná délka: 44-14-04E, výška: 35 m

Aktuální stav počasí

Zpráva byla vytvořena před 29 minutami, v 10:00 UTC
Východoseverovýchodní vítr 3 kt, proměnlivý mezi severním a jihojihovýchodním
Teplota 18°C
Vlhkost vzduchu 39%
Tlak 1018 hPa
Viditelnost 10 km a více
Žádná oblačnost pod 1500 m, nevyskytují se cumulonimby.

METAR: ORBI 251000Z 07003KT 360V160 CAVOK 18/04 Q1018

Čas: 13:29 (10:29 UTC)

Předpověď počasí

Zpráva byla vytvořena před 6 hodinami a 29 minutami, v 04:00 UTC
Předpověď platná od 25 v 06 UTC do 26 v 06 UTC
vítr z různých směrů 3 kt
Viditelnost: 8000 m

TAF: ORBI 250400Z 2506/2606 VRB03KT 8000 NSC

Stav a předpovědi počasí z více než 4 000 letišť (zprávy METAR a TAF).

Červené a žluté tečky na mapě představují dostupné meteorologické stanice.

Když kurzor umístíte na tečku, zobrazí se název stanice.

Pak kliknutím zobrazíte stav a předpověď počasí.

Chcete-li změnit mapu, kliknutím na zelené tlačítko se znaménkem +mapu přiblížíte, kliknutím na zelené tlačítko se znaménkem – mapu oddálíte a kliknutím na zelené šipky přejdete na sousední mapy.


METAR-TAF: